Time;durP1;ratioP1;P1;durP2;ratioP2;P2;SDS_P1;SDS_P2;PMS_P1;PMS_P2;Temp;Humidity;BMP_temperature;BMP_pressure;BME280_temperature;BME280_humidity;BME280_pressure;Samples;Min_cycle;Max_cycle;Signal;HPM_P1;HPM_P2
2024/04/02 00:07:40;;;;;;;5.60;2.20;;;;;;;12.68;72.98;96874.36;435117;1256;108658;-41
2024/04/02 00:17:45;;;;;;;7.20;3.80;;;;;;;12.68;73.19;96879.39;435133;1256;100572;-40
2024/04/02 00:37:58;;;;;;;4.50;2.10;;;;;;;12.63;74.10;96892.56;435035;1256;108437;-41
2024/04/02 00:48:06;;;;;;;4.80;2.50;;;;;;;12.37;75.42;96895.35;435156;1256;100626;-40
2024/04/02 00:58:14;;;;;;;4.30;1.90;;;;;;;11.93;76.39;96899.11;435163;1251;108070;-41
2024/04/02 01:18:26;;;;;;;4.30;1.90;;;;;;;11.45;78.19;96911.48;434557;1254;112227;-41
2024/04/02 01:28:33;;;;;;;2.60;2.10;;;;;;;11.23;79.26;96900.42;434573;1256;108380;-40
2024/04/02 01:38:40;;;;;;;2.10;1.20;;;;;;;11.04;80.22;96893.79;434438;1257;100659;-41
2024/04/02 01:48:46;;;;;;;2.90;1.70;;;;;;;10.92;80.67;96897.73;434451;1259;108592;-42
2024/04/02 01:58:52;;;;;;;3.00;1.50;;;;;;;10.87;81.41;96890.60;434517;1266;100567;-42
2024/04/02 02:08:58;;;;;;;1.80;1.20;;;;;;;10.82;81.83;96891.00;434492;1259;113833;-40
2024/04/02 02:19:05;;;;;;;1.20;1.10;;;;;;;10.62;83.76;96923.46;434581;1256;109352;-41
2024/04/02 02:29:11;;;;;;;1.50;1.40;;;;;;;10.47;84.20;96926.33;434429;1256;100599;-40
2024/04/02 02:39:18;;;;;;;1.60;1.40;;;;;;;10.46;84.11;96918.56;434376;1262;110415;-42
2024/04/02 02:49:26;;;;;;;2.40;1.70;;;;;;;10.33;84.98;96918.06;434511;1257;100699;-41
2024/04/02 02:59:33;;;;;;;1.60;1.50;;;;;;;10.31;84.67;96909.56;434493;1254;112914;-41
2024/04/02 03:09:41;;;;;;;10.40;4.60;;;;;;;10.36;84.35;96898.82;434510;1267;107818;-42
2024/04/02 03:19:48;;;;;;;4.90;2.80;;;;;;;10.35;84.19;96898.98;434493;1256;99281;-41
2024/04/02 03:29:54;;;;;;;11.90;5.40;;;;;;;10.17;84.84;96902.98;434458;1255;109471;-41
2024/04/02 03:40:00;;;;;;;7.20;4.00;;;;;;;10.12;84.72;96910.54;434346;1254;100584;-41
2024/04/02 03:50:07;;;;;;;4.60;2.10;;;;;;;10.10;85.37;96910.08;434559;1267;113246;-41
2024/04/02 04:00:16;;;;;;;4.80;2.10;;;;;;;10.08;85.45;96921.43;434313;1256;107453;-41
2024/04/02 04:10:22;;;;;;;4.20;1.60;;;;;;;10.00;86.36;96928.38;434265;1254;99622;-41
2024/04/02 04:20:30;;;;;;;2.50;1.80;;;;;;;9.78;87.48;96916.52;434266;1257;106670;-40
2024/04/02 04:30:37;;;;;;;3.40;1.80;;;;;;;9.61;87.78;96914.86;434328;1254;100642;-42
2024/04/02 04:40:44;;;;;;;2.30;2.10;;;;;;;9.50;88.85;96908.53;434410;1254;113158;-40
2024/04/02 04:51:01;;;;;;;4.70;2.30;;;;;;;9.42;89.00;96925.02;434193;1254;109068;-41
2024/04/02 05:01:08;;;;;;;4.30;3.30;;;;;;;9.42;88.96;96931.04;434307;1254;102836;-41
2024/04/02 05:11:15;;;;;;;4.00;3.00;;;;;;;9.30;89.03;96945.55;434179;1259;108390;-42
2024/04/02 05:21:21;;;;;;;10.30;5.40;;;;;;;9.32;88.34;96978.89;434269;1257;99857;-40
2024/04/02 05:31:27;;;;;;;7.50;4.60;;;;;;;9.32;88.41;96997.88;434337;1257;113375;-41
2024/04/02 05:41:34;;;;;;;13.90;5.50;;;;;;;9.21;88.36;96993.31;433902;1256;565057;-41
2024/04/02 05:51:40;;;;;;;11.60;6.10;;;;;;;9.23;87.88;96998.45;434286;1255;100585;-40
2024/04/02 06:01:46;;;;;;;8.10;5.00;;;;;;;9.23;87.85;97000.34;434301;1254;108257;-40
2024/04/02 06:11:53;;;;;;;16.50;10.00;;;;;;;9.21;88.18;97007.61;434454;1257;100588;-42
2024/04/02 06:21:59;;;;;;;5.80;4.50;;;;;;;9.10;88.12;97019.60;434238;1254;113172;-42
2024/04/02 06:32:04;;;;;;;7.20;5.80;;;;;;;9.00;88.63;97017.15;434381;1254;108015;-40
2024/04/02 06:42:11;;;;;;;9.10;5.80;;;;;;;8.95;88.58;97035.20;434496;1256;99389;-41
2024/04/02 06:52:18;;;;;;;20.20;12.70;;;;;;;8.96;88.35;97046.55;434427;1256;108445;-41
2024/04/02 07:02:26;;;;;;;6.10;4.40;;;;;;;8.96;88.59;97048.60;434387;1253;100610;-40
2024/04/02 07:12:33;;;;;;;6.50;4.10;;;;;;;8.93;88.16;97065.09;434302;1254;112392;-40
2024/04/02 07:22:40;;;;;;;5.40;4.70;;;;;;;8.80;88.23;97089.14;434405;1256;108337;-41
2024/04/02 07:32:51;;;;;;;5.60;4.00;;;;;;;8.87;87.97;97115.05;434349;1254;99383;-41
2024/04/02 07:42:58;;;;;;;6.60;4.70;;;;;;;8.82;87.78;97127.46;434318;1254;107661;-41
2024/04/02 07:53:04;;;;;;;6.60;3.40;;;;;;;8.83;87.67;97137.85;434264;1253;100489;-41
2024/04/02 08:03:11;;;;;;;5.00;3.70;;;;;;;8.81;87.63;97143.84;434315;1253;112860;-40
2024/04/02 08:13:17;;;;;;;9.10;4.80;;;;;;;8.71;87.51;97151.47;434346;1256;107507;-41
2024/04/02 08:23:24;;;;;;;10.10;5.70;;;;;;;8.80;87.59;97155.65;434496;1253;99385;-39
2024/04/02 08:33:31;;;;;;;7.20;6.10;;;;;;;8.97;87.67;97148.84;434379;1257;107195;-41
2024/04/02 08:43:41;;;;;;;10.30;6.20;;;;;;;9.16;87.86;97166.23;434355;1253;100578;-41
2024/04/02 08:53:47;;;;;;;9.20;6.20;;;;;;;9.43;87.82;97183.79;434526;1253;111694;-40
2024/04/02 09:03:56;;;;;;;8.30;7.10;;;;;;;9.71;87.54;97193.55;434466;1257;109360;-41
2024/04/02 09:24:11;;;;;;;5.30;4.40;;;;;;;10.01;87.17;97229.61;434131;1257;108225;-41
2024/04/02 09:34:21;;;;;;;10.10;6.10;;;;;;;10.12;86.94;97227.16;434134;1258;100600;-40
2024/04/02 09:44:32;;;;;;;7.60;4.90;;;;;;;10.46;86.72;97246.64;434207;1254;113267;-42
2024/04/02 09:54:42;;;;;;;6.90;5.10;;;;;;;10.70;86.14;97271.64;434201;1257;107895;-41
2024/04/02 10:04:51;;;;;;;7.90;5.40;;;;;;;10.87;85.81;97255.09;434228;1253;100623;-40
2024/04/02 10:14:58;;;;;;;11.00;5.80;;;;;;;10.87;85.35;97241.33;434384;1252;108915;-41
2024/04/02 10:25:09;;;;;;;4.20;3.80;;;;;;;10.71;84.93;97249.80;434365;1252;100560;-42
2024/04/02 10:35:24;;;;;;;7.20;5.30;;;;;;;10.55;84.71;97256.70;434461;1253;112698;-40
2024/04/02 10:45:31;;;;;;;7.20;5.20;;;;;;;10.50;84.69;97265.73;434487;1259;106707;-40
2024/04/02 10:55:38;;;;;;;6.50;4.80;;;;;;;10.63;84.60;97270.67;434495;1253;100616;-40
2024/04/02 11:05:46;;;;;;;5.80;5.20;;;;;;;11.14;84.29;97281.27;434509;1258;107663;-41
2024/04/02 11:15:52;;;;;;;7.80;5.40;;;;;;;11.45;82.98;97298.73;434350;1256;99385;-40
2024/04/02 11:26:07;;;;;;;6.50;5.50;;;;;;;11.52;82.54;97313.39;434534;1256;114394;-41
2024/04/02 11:36:14;;;;;;;5.30;4.20;;;;;;;11.98;81.67;97305.14;434523;1257;107093;-43
2024/04/02 12:00:01;;;;;;;6.90;3.20;;;;;;;11.71;78.11;97326.23;434440;1257;110001;-39
2024/04/02 12:06:56;;;;;;;6.90;2.90;;;;;;;11.71;77.70;97337.77;434472;1253;100597;-41
2024/04/02 12:17:02;;;;;;;10.20;4.00;;;;;;;11.80;77.69;97338.56;434495;1257;112757;-41
2024/04/02 12:37:16;;;;;;;6.40;3.90;;;;;;;11.54;77.13;97334.35;434506;1253;100574;-40
2024/04/02 12:47:24;;;;;;;5.00;2.40;;;;;;;11.75;76.77;97333.85;434407;1257;107570;-41
2024/04/02 12:57:30;;;;;;;5.50;2.30;;;;;;;11.80;75.82;97332.79;434465;1257;99952;-41
2024/04/02 13:07:40;;;;;;;9.80;5.60;;;;;;;11.85;75.17;97341.36;434558;1252;113945;-40
2024/04/02 13:17:46;;;;;;;13.50;7.10;;;;;;;12.11;74.75;97337.59;434570;1257;106569;-41
2024/04/02 13:27:52;;;;;;;7.10;4.70;;;;;;;12.37;73.65;97332.06;434406;1256;100597;-41
2024/04/02 13:37:59;;;;;;;22.60;11.80;;;;;;;12.83;73.15;97330.90;434630;1257;107033;-41
2024/04/02 13:48:05;;;;;;;22.50;10.90;;;;;;;13.09;71.69;97327.60;434619;1257;100104;-41
2024/04/02 13:58:11;;;;;;;8.70;4.80;;;;;;;12.91;69.75;97343.32;434773;1253;112510;-41
2024/04/02 14:08:17;;;;;;;13.60;8.30;;;;;;;12.00;69.54;97362.02;434685;1256;107880;-40
2024/04/02 14:18:25;;;;;;;11.70;6.40;;;;;;;11.48;71.41;97362.80;434539;1253;99366;-39
2024/04/02 14:28:33;;;;;;;9.60;6.60;;;;;;;11.45;72.25;97354.37;434682;1257;107418;-40
2024/04/02 14:38:40;;;;;;;8.90;4.80;;;;;;;11.36;73.07;97357.34;434766;1256;99309;-40
2024/04/02 14:58:53;;;;;;;10.90;7.50;;;;;;;11.62;73.75;97369.83;434741;1256;108495;-41
2024/04/02 15:09:02;;;;;;;2.80;2.30;;;;;;;11.71;73.96;97372.77;434820;1256;100591;-43
2024/04/02 15:29:27;;;;;;;7.50;3.90;;;;;;;11.68;74.41;97372.52;434783;1257;99373;-40
2024/04/02 15:39:34;;;;;;;6.90;2.70;;;;;;;11.94;74.67;97384.41;434875;1257;114357;-40
2024/04/02 15:49:41;;;;;;;9.30;3.40;;;;;;;12.22;74.28;97388.10;434727;1253;108726;-41
2024/04/02 15:59:49;;;;;;;3.90;2.40;;;;;;;12.39;72.75;97390.96;434812;1257;99358;-40
2024/04/02 16:30:11;;;;;;;9.90;4.20;;;;;;;12.19;69.54;97408.46;434888;1257;114964;-40
2024/04/02 16:40:18;;;;;;;9.00;3.70;;;;;;;12.11;68.62;97418.56;434679;1252;107911;-40
2024/04/02 16:50:24;;;;;;;11.20;3.20;;;;;;;11.92;68.07;97434.96;434648;1258;100686;-41
2024/04/02 17:00:31;;;;;;;21.00;13.10;;;;;;;11.70;67.86;97438.55;434736;1256;107945;-40
2024/04/02 17:10:38;;;;;;;16.30;7.10;;;;;;;11.51;67.90;97443.95;434697;1257;100600;-41
2024/04/02 17:20:44;;;;;;;46.70;21.00;;;;;;;11.33;67.99;97456.64;434904;1258;112576;-41
2024/04/02 17:30:53;;;;;;;17.40;9.80;;;;;;;11.10;67.94;97467.59;434824;1253;107213;-42
2024/04/02 17:41:02;;;;;;;6.30;3.60;;;;;;;10.91;67.76;97476.80;434410;1258;593648;-41
2024/04/02 17:51:08;;;;;;;;;;;;;;;10.84;67.81;97483.43;434795;1257;108312;-40
2024/04/02 18:01:29;;;;;;;8.50;6.10;;;;;;;10.75;67.76;97492.14;434789;1258;100586;-41
2024/04/02 18:11:38;;;;;;;6.00;2.50;;;;;;;10.71;67.84;97498.89;434860;1259;113796;-40
2024/04/02 18:21:44;;;;;;;7.10;4.40;;;;;;;10.71;67.79;97507.83;434718;1254;107650;-41
2024/04/02 18:41:58;;;;;;;3.50;2.30;;;;;;;10.46;68.00;97518.20;434650;1253;108225;-41
2024/04/02 18:52:03;;;;;;;6.30;2.70;;;;;;;10.24;67.79;97531.11;434801;1257;100568;-40
2024/04/02 19:02:10;;;;;;;5.00;2.00;;;;;;;10.18;67.78;97539.20;434888;1253;111596;-41
2024/04/02 19:22:22;;;;;;;3.60;2.20;;;;;;;10.23;67.96;97533.29;434668;1253;100600;-42
2024/04/02 19:32:29;;;;;;;7.80;4.80;;;;;;;10.14;67.87;97540.05;434641;1253;108525;-41
2024/04/02 19:42:36;;;;;;;6.80;4.20;;;;;;;10.10;68.28;97541.08;434528;1259;100667;-40
2024/04/02 19:52:43;;;;;;;12.70;6.80;;;;;;;10.05;68.55;97541.20;434659;1267;112241;-40
2024/04/02 20:02:51;;;;;;;9.90;5.10;;;;;;;9.95;68.49;97545.35;434596;1258;109087;-40
2024/04/02 20:12:56;;;;;;;8.20;6.00;;;;;;;9.85;68.73;97537.91;434514;1257;100604;-41
2024/04/02 20:23:03;;;;;;;14.10;4.40;;;;;;;9.94;68.72;97538.33;434535;1259;109333;-42
2024/04/02 20:33:10;;;;;;;14.20;6.40;;;;;;;10.01;68.83;97548.05;434489;1259;100601;-40
2024/04/02 20:43:30;;;;;;;8.40;4.50;;;;;;;10.00;68.78;97558.45;434516;1259;113159;-39
2024/04/02 20:53:36;;;;;;;15.60;8.20;;;;;;;9.89;68.62;97558.88;434696;1257;108465;-40
2024/04/02 21:03:43;;;;;;;14.30;6.10;;;;;;;9.75;68.73;97555.69;434596;1259;100582;-40
2024/04/02 21:13:49;;;;;;;13.90;7.50;;;;;;;9.68;68.73;97552.59;434543;1257;109339;-40
2024/04/02 21:23:57;;;;;;;11.50;5.70;;;;;;;9.68;68.85;97549.91;434520;1253;99369;-41
2024/04/02 21:34:03;;;;;;;11.20;5.30;;;;;;;9.64;69.27;97552.77;434574;1257;113311;-41
2024/04/02 21:44:10;;;;;;;4.60;2.80;;;;;;;9.64;69.42;97560.06;434525;1258;106856;-41
2024/04/02 21:54:17;;;;;;;12.30;6.80;;;;;;;9.66;69.29;97559.29;434489;1256;100597;-41
2024/04/02 22:04:24;;;;;;;5.60;3.20;;;;;;;9.63;69.29;97565.33;434509;1266;108223;-41
2024/04/02 22:14:30;;;;;;;5.90;2.50;;;;;;;9.60;69.21;97566.25;434530;1253;100645;-41
2024/04/02 22:24:36;;;;;;;10.00;3.30;;;;;;;9.51;69.42;97570.75;434599;1256;111950;-40
2024/04/02 22:34:43;;;;;;;7.40;4.90;;;;;;;9.32;69.74;97571.34;434399;1266;108118;-41
2024/04/02 22:44:49;;;;;;;3.80;1.70;;;;;;;9.23;70.23;97563.80;434235;1267;100690;-41
2024/04/02 22:54:56;;;;;;;4.00;2.30;;;;;;;9.34;70.50;97569.41;434422;1257;107637;-41
2024/04/02 23:05:03;;;;;;;13.30;6.00;;;;;;;9.36;70.44;97567.80;434530;1256;100578;-42
2024/04/02 23:15:09;;;;;;;5.30;3.00;;;;;;;9.33;70.65;97568.83;434417;1266;112577;-40
2024/04/02 23:25:17;;;;;;;9.40;5.80;;;;;;;9.30;70.63;97581.30;434489;1257;108449;-41
2024/04/02 23:35:24;;;;;;;9.50;4.20;;;;;;;9.33;70.58;97589.98;434446;1257;100530;-40
2024/04/02 23:45:30;;;;;;;2.80;2.10;;;;;;;9.42;70.65;97582.16;434366;1257;108614;-41
2024/04/02 23:55:37;;;;;;;4.20;2.70;;;;;;;9.42;70.71;97584.84;434316;1257;99293;-40
